sensor_id;sensor_type;location;lat;lon;timestamp;P1;durP1;ratioP1;P2;durP2;ratioP2
54599;SDS011;40500;51.084;16.958;2023-06-22T00:02:38;10.70;;;8.80;;
54599;SDS011;40500;51.084;16.958;2023-06-22T00:05:28;10.00;;;8.50;;
54599;SDS011;40500;51.084;16.958;2023-06-22T00:08:17;12.90;;;9.30;;
54599;SDS011;40500;51.084;16.958;2023-06-22T00:11:22;11.70;;;8.50;;
54599;SDS011;40500;51.084;16.958;2023-06-22T00:14:15;11.60;;;9.00;;
54599;SDS011;40500;51.084;16.958;2023-06-22T00:17:04;10.90;;;9.80;;
54599;SDS011;40500;51.084;16.958;2023-06-22T00:19:53;12.90;;;10.70;;
54599;SDS011;40500;51.084;16.958;2023-06-22T00:22:48;11.90;;;9.50;;
54599;SDS011;40500;51.084;16.958;2023-06-22T00:25:21;13.30;;;9.80;;
54599;SDS011;40500;51.084;16.958;2023-06-22T00:28:10;10.20;;;9.10;;
54599;SDS011;40500;51.084;16.958;2023-06-22T00:30:58;10.30;;;9.20;;
54599;SDS011;40500;51.084;16.958;2023-06-22T00:33:49;10.30;;;9.20;;
54599;SDS011;40500;51.084;16.958;2023-06-22T00:36:40;12.80;;;9.30;;
54599;SDS011;40500;51.084;16.958;2023-06-22T00:39:22;11.00;;;8.90;;
54599;SDS011;40500;51.084;16.958;2023-06-22T00:42:14;10.50;;;9.40;;
54599;SDS011;40500;51.084;16.958;2023-06-22T00:45:17;9.00;;;8.20;;
54599;SDS011;40500;51.084;16.958;2023-06-22T00:48:08;9.90;;;8.80;;
54599;SDS011;40500;51.084;16.958;2023-06-22T00:51:01;11.30;;;9.40;;
54599;SDS011;40500;51.084;16.958;2023-06-22T00:53:39;8.90;;;8.00;;
54599;SDS011;40500;51.084;16.958;2023-06-22T00:56:31;10.10;;;8.90;;
54599;SDS011;40500;51.084;16.958;2023-06-22T00:59:09;9.40;;;8.40;;
54599;SDS011;40500;51.084;16.958;2023-06-22T01:02:04;10.00;;;8.90;;
54599;SDS011;40500;51.084;16.958;2023-06-22T01:05:07;8.90;;;8.00;;
54599;SDS011;40500;51.084;16.958;2023-06-22T01:08:00;10.70;;;8.90;;
54599;SDS011;40500;51.084;16.958;2023-06-22T01:11:10;10.10;;;9.10;;
54599;SDS011;40500;51.084;16.958;2023-06-22T01:14:10;13.10;;;8.60;;
54599;SDS011;40500;51.084;16.958;2023-06-22T01:17:08;12.70;;;9.20;;
54599;SDS011;40500;51.084;16.958;2023-06-22T01:20:13;12.90;;;9.20;;
54599;SDS011;40500;51.084;16.958;2023-06-22T01:23:09;11.20;;;8.80;;
54599;SDS011;40500;51.084;16.958;2023-06-22T01:26:06;12.90;;;8.90;;
54599;SDS011;40500;51.084;16.958;2023-06-22T01:29:08;12.90;;;9.20;;
54599;SDS011;40500;51.084;16.958;2023-06-22T01:32:14;9.90;;;8.90;;
54599;SDS011;40500;51.084;16.958;2023-06-22T01:34:51;13.10;;;8.50;;
54599;SDS011;40500;51.084;16.958;2023-06-22T01:37:24;10.00;;;9.00;;
54599;SDS011;40500;51.084;16.958;2023-06-22T01:40:15;10.00;;;8.80;;
54599;SDS011;40500;51.084;16.958;2023-06-22T01:46:05;10.40;;;9.30;;
54599;SDS011;40500;51.084;16.958;2023-06-22T01:49:09;10.60;;;8.90;;
54599;SDS011;40500;51.084;16.958;2023-06-22T01:52:03;12.30;;;9.50;;
54599;SDS011;40500;51.084;16.958;2023-06-22T01:54:53;13.60;;;9.20;;
54599;SDS011;40500;51.084;16.958;2023-06-22T01:57:35;13.30;;;9.50;;
54599;SDS011;40500;51.084;16.958;2023-06-22T02:00:26;12.40;;;9.10;;
54599;SDS011;40500;51.084;16.958;2023-06-22T02:03:20;9.60;;;8.50;;
54599;SDS011;40500;51.084;16.958;2023-06-22T02:06:14;13.80;;;8.40;;
54599;SDS011;40500;51.084;16.958;2023-06-22T02:09:17;13.10;;;8.10;;
54599;SDS011;40500;51.084;16.958;2023-06-22T02:12:12;12.10;;;8.70;;
54599;SDS011;40500;51.084;16.958;2023-06-22T02:15:05;15.00;;;7.80;;
54599;SDS011;40500;51.084;16.958;2023-06-22T02:17:56;12.50;;;8.80;;
54599;SDS011;40500;51.084;16.958;2023-06-22T02:20:48;9.20;;;8.10;;
54599;SDS011;40500;51.084;16.958;2023-06-22T02:23:38;10.40;;;8.50;;
54599;SDS011;40500;51.084;16.958;2023-06-22T02:26:26;9.30;;;8.40;;
54599;SDS011;40500;51.084;16.958;2023-06-22T02:29:21;17.30;;;8.90;;
54599;SDS011;40500;51.084;16.958;2023-06-22T02:31:57;8.80;;;7.90;;
54599;SDS011;40500;51.084;16.958;2023-06-22T02:34:26;11.10;;;8.60;;
54599;SDS011;40500;51.084;16.958;2023-06-22T02:37:18;10.60;;;8.60;;
54599;SDS011;40500;51.084;16.958;2023-06-22T02:39:48;10.00;;;9.10;;
54599;SDS011;40500;51.084;16.958;2023-06-22T02:42:37;9.00;;;8.00;;
54599;SDS011;40500;51.084;16.958;2023-06-22T02:45:29;8.70;;;7.80;;
54599;SDS011;40500;51.084;16.958;2023-06-22T02:48:18;9.70;;;8.70;;
54599;SDS011;40500;51.084;16.958;2023-06-22T02:51:07;10.20;;;9.20;;
54599;SDS011;40500;51.084;16.958;2023-06-22T02:53:56;11.90;;;10.20;;
54599;SDS011;40500;51.084;16.958;2023-06-22T02:56:50;12.80;;;9.30;;
54599;SDS011;40500;51.084;16.958;2023-06-22T02:59:38;14.10;;;9.20;;
54599;SDS011;40500;51.084;16.958;2023-06-22T03:02:31;10.80;;;9.20;;
54599;SDS011;40500;51.084;16.958;2023-06-22T03:05:24;12.20;;;10.30;;
54599;SDS011;40500;51.084;16.958;2023-06-22T03:08:17;15.70;;;10.60;;
54599;SDS011;40500;51.084;16.958;2023-06-22T03:11:05;10.60;;;9.30;;
54599;SDS011;40500;51.084;16.958;2023-06-22T03:13:54;17.60;;;9.60;;
54599;SDS011;40500;51.084;16.958;2023-06-22T03:16:45;10.20;;;8.90;;
54599;SDS011;40500;51.084;16.958;2023-06-22T03:19:37;12.00;;;10.60;;
54599;SDS011;40500;51.084;16.958;2023-06-22T03:22:28;14.30;;;11.50;;
54599;SDS011;40500;51.084;16.958;2023-06-22T03:25:00;15.20;;;10.80;;
54599;SDS011;40500;51.084;16.958;2023-06-22T03:27:57;12.20;;;10.10;;
54599;SDS011;40500;51.084;16.958;2023-06-22T03:30:47;12.30;;;10.60;;
54599;SDS011;40500;51.084;16.958;2023-06-22T03:33:36;14.10;;;10.30;;
54599;SDS011;40500;51.084;16.958;2023-06-22T03:36:27;11.10;;;9.90;;
54599;SDS011;40500;51.084;16.958;2023-06-22T03:39:21;13.60;;;10.70;;
54599;SDS011;40500;51.084;16.958;2023-06-22T03:41:51;12.10;;;10.00;;
54599;SDS011;40500;51.084;16.958;2023-06-22T03:44:40;11.60;;;10.40;;
54599;SDS011;40500;51.084;16.958;2023-06-22T03:47:30;16.00;;;11.10;;
54599;SDS011;40500;51.084;16.958;2023-06-22T03:50:19;13.40;;;10.60;;
54599;SDS011;40500;51.084;16.958;2023-06-22T03:53:07;12.00;;;10.10;;
54599;SDS011;40500;51.084;16.958;2023-06-22T03:56:02;11.50;;;10.40;;
54599;SDS011;40500;51.084;16.958;2023-06-22T03:58:54;12.90;;;11.10;;
54599;SDS011;40500;51.084;16.958;2023-06-22T04:01:46;11.50;;;10.00;;
54599;SDS011;40500;51.084;16.958;2023-06-22T04:04:39;12.30;;;10.80;;
54599;SDS011;40500;51.084;16.958;2023-06-22T04:07:30;12.40;;;10.80;;
54599;SDS011;40500;51.084;16.958;2023-06-22T04:10:00;14.80;;;10.70;;
54599;SDS011;40500;51.084;16.958;2023-06-22T04:12:52;14.10;;;9.70;;
54599;SDS011;40500;51.084;16.958;2023-06-22T04:15:42;13.00;;;10.70;;
54599;SDS011;40500;51.084;16.958;2023-06-22T04:18:35;12.80;;;10.50;;
54599;SDS011;40500;51.084;16.958;2023-06-22T04:21:23;12.40;;;10.60;;
54599;SDS011;40500;51.084;16.958;2023-06-22T04:24:17;12.80;;;11.50;;
54599;SDS011;40500;51.084;16.958;2023-06-22T04:27:08;17.10;;;11.90;;
54599;SDS011;40500;51.084;16.958;2023-06-22T04:29:56;12.20;;;10.80;;
54599;SDS011;40500;51.084;16.958;2023-06-22T04:32:58;18.20;;;11.30;;
54599;SDS011;40500;51.084;16.958;2023-06-22T04:35:51;13.00;;;11.50;;
54599;SDS011;40500;51.084;16.958;2023-06-22T04:38:43;13.50;;;11.70;;
54599;SDS011;40500;51.084;16.958;2023-06-22T04:41:16;20.20;;;13.20;;
54599;SDS011;40500;51.084;16.958;2023-06-22T04:44:11;15.20;;;12.50;;
54599;SDS011;40500;51.084;16.958;2023-06-22T04:47:03;16.00;;;12.50;;
54599;SDS011;40500;51.084;16.958;2023-06-22T04:49:55;18.00;;;14.40;;
54599;SDS011;40500;51.084;16.958;2023-06-22T04:53:01;17.40;;;12.90;;
54599;SDS011;40500;51.084;16.958;2023-06-22T04:56:00;19.60;;;14.40;;
54599;SDS011;40500;51.084;16.958;2023-06-22T04:58:52;15.40;;;13.50;;
54599;SDS011;40500;51.084;16.958;2023-06-22T05:01:43;15.30;;;13.40;;
54599;SDS011;40500;51.084;16.958;2023-06-22T05:04:39;19.90;;;13.40;;
54599;SDS011;40500;51.084;16.958;2023-06-22T05:07:30;15.40;;;13.30;;
54599;SDS011;40500;51.084;16.958;2023-06-22T05:10:20;19.10;;;14.10;;
54599;SDS011;40500;51.084;16.958;2023-06-22T05:13:17;17.30;;;12.90;;
54599;SDS011;40500;51.084;16.958;2023-06-22T05:16:15;18.60;;;13.50;;
54599;SDS011;40500;51.084;16.958;2023-06-22T05:19:18;15.70;;;14.10;;
54599;SDS011;40500;51.084;16.958;2023-06-22T05:22:09;16.70;;;14.00;;
54599;SDS011;40500;51.084;16.958;2023-06-22T05:25:01;17.50;;;14.00;;
54599;SDS011;40500;51.084;16.958;2023-06-22T05:27:54;15.70;;;13.90;;
54599;SDS011;40500;51.084;16.958;2023-06-22T05:30:49;19.20;;;14.90;;
54599;SDS011;40500;51.084;16.958;2023-06-22T05:33:42;21.70;;;14.10;;
54599;SDS011;40500;51.084;16.958;2023-06-22T05:36:35;16.70;;;14.50;;
54599;SDS011;40500;51.084;16.958;2023-06-22T05:39:23;15.40;;;13.70;;
54599;SDS011;40500;51.084;16.958;2023-06-22T05:42:17;15.30;;;13.30;;
54599;SDS011;40500;51.084;16.958;2023-06-22T05:45:19;15.50;;;11.70;;
54599;SDS011;40500;51.084;16.958;2023-06-22T05:48:11;12.70;;;10.20;;
54599;SDS011;40500;51.084;16.958;2023-06-22T05:51:00;13.70;;;10.50;;
54599;SDS011;40500;51.084;16.958;2023-06-22T05:53:54;11.40;;;10.00;;
54599;SDS011;40500;51.084;16.958;2023-06-22T05:56:57;9.90;;;8.90;;
54599;SDS011;40500;51.084;16.958;2023-06-22T05:59:25;14.60;;;9.70;;
54599;SDS011;40500;51.084;16.958;2023-06-22T06:01:52;10.50;;;9.20;;
54599;SDS011;40500;51.084;16.958;2023-06-22T06:04:20;10.90;;;8.80;;
54599;SDS011;40500;51.084;16.958;2023-06-22T06:06:48;9.10;;;8.00;;
54599;SDS011;40500;51.084;16.958;2023-06-22T06:09:16;8.00;;;7.10;;
54599;SDS011;40500;51.084;16.958;2023-06-22T06:11:43;8.80;;;7.90;;
54599;SDS011;40500;51.084;16.958;2023-06-22T06:14:12;7.30;;;6.50;;
54599;SDS011;40500;51.084;16.958;2023-06-22T06:16:39;9.40;;;7.40;;
54599;SDS011;40500;51.084;16.958;2023-06-22T06:19:07;8.30;;;7.40;;
54599;SDS011;40500;51.084;16.958;2023-06-22T06:21:35;7.70;;;6.40;;
54599;SDS011;40500;51.084;16.958;2023-06-22T06:24:02;7.10;;;6.50;;
54599;SDS011;40500;51.084;16.958;2023-06-22T06:26:31;7.60;;;6.90;;
54599;SDS011;40500;51.084;16.958;2023-06-22T06:29:02;6.80;;;6.00;;
54599;SDS011;40500;51.084;16.958;2023-06-22T06:31:32;10.40;;;6.10;;
54599;SDS011;40500;51.084;16.958;2023-06-22T06:34:00;7.20;;;6.50;;
54599;SDS011;40500;51.084;16.958;2023-06-22T06:36:31;8.70;;;7.20;;
54599;SDS011;40500;51.084;16.958;2023-06-22T06:38:59;9.20;;;6.60;;
54599;SDS011;40500;51.084;16.958;2023-06-22T06:41:26;7.30;;;6.60;;
54599;SDS011;40500;51.084;16.958;2023-06-22T06:43:54;10.60;;;6.70;;
54599;SDS011;40500;51.084;16.958;2023-06-22T06:46:21;9.10;;;7.20;;
54599;SDS011;40500;51.084;16.958;2023-06-22T06:48:49;10.90;;;7.20;;
54599;SDS011;40500;51.084;16.958;2023-06-22T06:51:19;7.90;;;7.10;;
54599;SDS011;40500;51.084;16.958;2023-06-22T06:53:47;7.90;;;6.90;;
54599;SDS011;40500;51.084;16.958;2023-06-22T06:56:16;8.20;;;6.50;;
54599;SDS011;40500;51.084;16.958;2023-06-22T06:58:44;8.30;;;6.80;;
54599;SDS011;40500;51.084;16.958;2023-06-22T07:01:11;8.80;;;6.40;;
54599;SDS011;40500;51.084;16.958;2023-06-22T07:03:39;7.30;;;6.60;;
54599;SDS011;40500;51.084;16.958;2023-06-22T07:06:07;12.10;;;8.20;;
54599;SDS011;40500;51.084;16.958;2023-06-22T07:08:38;10.60;;;7.90;;
54599;SDS011;40500;51.084;16.958;2023-06-22T07:11:08;9.20;;;7.40;;
54599;SDS011;40500;51.084;16.958;2023-06-22T07:13:37;8.70;;;7.70;;
54599;SDS011;40500;51.084;16.958;2023-06-22T07:16:05;9.20;;;8.10;;
54599;SDS011;40500;51.084;16.958;2023-06-22T07:18:39;13.40;;;8.70;;
54599;SDS011;40500;51.084;16.958;2023-06-22T07:21:16;10.20;;;8.50;;
54599;SDS011;40500;51.084;16.958;2023-06-22T07:23:44;11.10;;;8.40;;
54599;SDS011;40500;51.084;16.958;2023-06-22T07:26:20;8.30;;;7.40;;
54599;SDS011;40500;51.084;16.958;2023-06-22T07:29:08;9.90;;;7.50;;
54599;SDS011;40500;51.084;16.958;2023-06-22T07:31:41;8.60;;;7.80;;
54599;SDS011;40500;51.084;16.958;2023-06-22T07:34:20;9.20;;;8.30;;
54599;SDS011;40500;51.084;16.958;2023-06-22T07:36:55;11.10;;;8.60;;
54599;SDS011;40500;51.084;16.958;2023-06-22T07:39:25;10.10;;;8.00;;
54599;SDS011;40500;51.084;16.958;2023-06-22T07:42:10;12.50;;;8.30;;
54599;SDS011;40500;51.084;16.958;2023-06-22T07:45:04;9.80;;;8.80;;
54599;SDS011;40500;51.084;16.958;2023-06-22T07:47:40;9.00;;;8.20;;
54599;SDS011;40500;51.084;16.958;2023-06-22T07:50:31;9.00;;;7.80;;
54599;SDS011;40500;51.084;16.958;2023-06-22T07:53:04;11.20;;;8.90;;
54599;SDS011;40500;51.084;16.958;2023-06-22T07:55:37;8.80;;;7.70;;
54599;SDS011;40500;51.084;16.958;2023-06-22T07:58:06;10.10;;;8.90;;
54599;SDS011;40500;51.084;16.958;2023-06-22T08:00:39;8.70;;;7.90;;
54599;SDS011;40500;51.084;16.958;2023-06-22T08:03:25;11.70;;;9.00;;
54599;SDS011;40500;51.084;16.958;2023-06-22T08:05:52;8.80;;;7.90;;
54599;SDS011;40500;51.084;16.958;2023-06-22T08:08:28;10.10;;;9.00;;
54599;SDS011;40500;51.084;16.958;2023-06-22T08:10:55;9.60;;;7.80;;
54599;SDS011;40500;51.084;16.958;2023-06-22T08:13:27;9.50;;;8.20;;
54599;SDS011;40500;51.084;16.958;2023-06-22T08:15:57;8.70;;;7.80;;
54599;SDS011;40500;51.084;16.958;2023-06-22T08:18:24;9.40;;;8.40;;
54599;SDS011;40500;51.084;16.958;2023-06-22T08:20:52;9.90;;;8.30;;
54599;SDS011;40500;51.084;16.958;2023-06-22T08:23:20;10.60;;;8.70;;
54599;SDS011;40500;51.084;16.958;2023-06-22T08:25:48;10.00;;;9.00;;
54599;SDS011;40500;51.084;16.958;2023-06-22T08:28:19;10.90;;;9.10;;
54599;SDS011;40500;51.084;16.958;2023-06-22T08:30:47;12.10;;;9.60;;
54599;SDS011;40500;51.084;16.958;2023-06-22T08:33:16;10.30;;;9.20;;
54599;SDS011;40500;51.084;16.958;2023-06-22T08:35:54;13.80;;;9.10;;
54599;SDS011;40500;51.084;16.958;2023-06-22T08:38:23;12.50;;;9.60;;
54599;SDS011;40500;51.084;16.958;2023-06-22T08:40:54;12.30;;;9.00;;
54599;SDS011;40500;51.084;16.958;2023-06-22T08:43:22;12.10;;;8.70;;
54599;SDS011;40500;51.084;16.958;2023-06-22T08:45:49;9.90;;;8.90;;
54599;SDS011;40500;51.084;16.958;2023-06-22T08:48:17;11.60;;;9.50;;
54599;SDS011;40500;51.084;16.958;2023-06-22T08:50:49;9.60;;;8.70;;
54599;SDS011;40500;51.084;16.958;2023-06-22T08:53:24;9.60;;;8.50;;
54599;SDS011;40500;51.084;16.958;2023-06-22T08:55:54;14.50;;;11.00;;
54599;SDS011;40500;51.084;16.958;2023-06-22T08:58:28;9.70;;;8.70;;
54599;SDS011;40500;51.084;16.958;2023-06-22T09:01:12;21.30;;;11.00;;
54599;SDS011;40500;51.084;16.958;2023-06-22T09:03:42;12.40;;;8.80;;
54599;SDS011;40500;51.084;16.958;2023-06-22T09:06:20;13.10;;;9.20;;
54599;SDS011;40500;51.084;16.958;2023-06-22T09:08:48;9.40;;;8.50;;
54599;SDS011;40500;51.084;16.958;2023-06-22T09:11:16;19.80;;;10.20;;
54599;SDS011;40500;51.084;16.958;2023-06-22T09:13:44;18.70;;;11.80;;
54599;SDS011;40500;51.084;16.958;2023-06-22T09:16:14;9.30;;;7.70;;
54599;SDS011;40500;51.084;16.958;2023-06-22T09:18:42;14.20;;;8.00;;
54599;SDS011;40500;51.084;16.958;2023-06-22T09:21:14;8.70;;;7.80;;
54599;SDS011;40500;51.084;16.958;2023-06-22T09:23:42;8.10;;;7.30;;
54599;SDS011;40500;51.084;16.958;2023-06-22T09:26:09;8.20;;;7.40;;
54599;SDS011;40500;51.084;16.958;2023-06-22T09:28:37;12.00;;;8.00;;
54599;SDS011;40500;51.084;16.958;2023-06-22T09:31:08;10.10;;;8.70;;
54599;SDS011;40500;51.084;16.958;2023-06-22T09:33:36;8.80;;;7.90;;
54599;SDS011;40500;51.084;16.958;2023-06-22T09:38:47;10.00;;;7.50;;
54599;SDS011;40500;51.084;16.958;2023-06-22T09:41:28;11.80;;;7.60;;
54599;SDS011;40500;51.084;16.958;2023-06-22T09:44:01;8.80;;;7.80;;
54599;SDS011;40500;51.084;16.958;2023-06-22T09:46:29;8.40;;;7.40;;
54599;SDS011;40500;51.084;16.958;2023-06-22T09:48:57;9.20;;;7.20;;
54599;SDS011;40500;51.084;16.958;2023-06-22T09:51:25;9.20;;;6.90;;
54599;SDS011;40500;51.084;16.958;2023-06-22T09:53:53;7.20;;;6.50;;
54599;SDS011;40500;51.084;16.958;2023-06-22T09:56:28;8.90;;;6.80;;
54599;SDS011;40500;51.084;16.958;2023-06-22T09:58:56;7.90;;;6.60;;
54599;SDS011;40500;51.084;16.958;2023-06-22T10:01:43;6.80;;;6.20;;
54599;SDS011;40500;51.084;16.958;2023-06-22T10:04:11;8.00;;;6.60;;
54599;SDS011;40500;51.084;16.958;2023-06-22T10:06:44;7.40;;;6.60;;
54599;SDS011;40500;51.084;16.958;2023-06-22T10:09:12;6.90;;;6.30;;
54599;SDS011;40500;51.084;16.958;2023-06-22T10:11:40;7.00;;;6.10;;
54599;SDS011;40500;51.084;16.958;2023-06-22T10:14:12;6.50;;;5.90;;
54599;SDS011;40500;51.084;16.958;2023-06-22T10:16:40;12.60;;;6.20;;
54599;SDS011;40500;51.084;16.958;2023-06-22T10:19:08;7.00;;;5.90;;
54599;SDS011;40500;51.084;16.958;2023-06-22T10:21:38;8.40;;;5.60;;
54599;SDS011;40500;51.084;16.958;2023-06-22T10:24:07;6.60;;;5.90;;
54599;SDS011;40500;51.084;16.958;2023-06-22T10:26:35;6.50;;;5.70;;
54599;SDS011;40500;51.084;16.958;2023-06-22T10:29:03;7.00;;;5.40;;
54599;SDS011;40500;51.084;16.958;2023-06-22T10:31:35;6.80;;;5.30;;
54599;SDS011;40500;51.084;16.958;2023-06-22T10:34:04;8.50;;;5.50;;
54599;SDS011;40500;51.084;16.958;2023-06-22T10:36:33;6.20;;;5.60;;
54599;SDS011;40500;51.084;16.958;2023-06-22T10:39:02;6.50;;;5.60;;
54599;SDS011;40500;51.084;16.958;2023-06-22T10:41:33;6.50;;;5.80;;
54599;SDS011;40500;51.084;16.958;2023-06-22T10:44:03;8.00;;;5.20;;
54599;SDS011;40500;51.084;16.958;2023-06-22T10:46:31;5.70;;;4.90;;
54599;SDS011;40500;51.084;16.958;2023-06-22T10:49:01;5.00;;;4.60;;
54599;SDS011;40500;51.084;16.958;2023-06-22T10:51:29;5.50;;;5.00;;
54599;SDS011;40500;51.084;16.958;2023-06-22T10:53:59;4.80;;;4.30;;
54599;SDS011;40500;51.084;16.958;2023-06-22T10:56:29;5.80;;;5.20;;
54599;SDS011;40500;51.084;16.958;2023-06-22T10:58:56;6.90;;;5.20;;
54599;SDS011;40500;51.084;16.958;2023-06-22T11:01:25;8.00;;;5.60;;
54599;SDS011;40500;51.084;16.958;2023-06-22T11:04:04;6.30;;;5.40;;
54599;SDS011;40500;51.084;16.958;2023-06-22T11:06:32;6.30;;;5.70;;
54599;SDS011;40500;51.084;16.958;2023-06-22T11:09:00;6.50;;;5.90;;
54599;SDS011;40500;51.084;16.958;2023-06-22T11:11:30;6.10;;;5.50;;
54599;SDS011;40500;51.084;16.958;2023-06-22T11:13:58;5.70;;;5.20;;
54599;SDS011;40500;51.084;16.958;2023-06-22T11:16:26;6.70;;;5.10;;
54599;SDS011;40500;51.084;16.958;2023-06-22T11:18:54;5.00;;;4.50;;
54599;SDS011;40500;51.084;16.958;2023-06-22T11:21:21;5.90;;;5.30;;
54599;SDS011;40500;51.084;16.958;2023-06-22T11:23:49;5.30;;;4.80;;
54599;SDS011;40500;51.084;16.958;2023-06-22T11:26:17;5.70;;;5.10;;
54599;SDS011;40500;51.084;16.958;2023-06-22T11:28:45;5.60;;;5.00;;
54599;SDS011;40500;51.084;16.958;2023-06-22T11:31:14;7.70;;;5.80;;
54599;SDS011;40500;51.084;16.958;2023-06-22T11:33:52;5.80;;;5.20;;
54599;SDS011;40500;51.084;16.958;2023-06-22T11:36:20;5.80;;;5.20;;
54599;SDS011;40500;51.084;16.958;2023-06-22T11:38:48;6.20;;;5.20;;
54599;SDS011;40500;51.084;16.958;2023-06-22T11:41:16;7.40;;;5.20;;
54599;SDS011;40500;51.084;16.958;2023-06-22T11:43:44;5.40;;;4.60;;
54599;SDS011;40500;51.084;16.958;2023-06-22T11:46:16;4.90;;;4.50;;
54599;SDS011;40500;51.084;16.958;2023-06-22T11:48:44;6.60;;;5.20;;
54599;SDS011;40500;51.084;16.958;2023-06-22T11:51:15;6.90;;;5.20;;
54599;SDS011;40500;51.084;16.958;2023-06-22T11:53:42;6.60;;;5.30;;
54599;SDS011;40500;51.084;16.958;2023-06-22T11:56:10;8.10;;;5.60;;
54599;SDS011;40500;51.084;16.958;2023-06-22T11:58:38;5.00;;;4.60;;
54599;SDS011;40500;51.084;16.958;2023-06-22T12:01:06;5.90;;;5.20;;
54599;SDS011;40500;51.084;16.958;2023-06-22T12:03:41;6.10;;;4.50;;
54599;SDS011;40500;51.084;16.958;2023-06-22T12:06:10;5.50;;;5.00;;
54599;SDS011;40500;51.084;16.958;2023-06-22T12:08:38;6.00;;;5.40;;
54599;SDS011;40500;51.084;16.958;2023-06-22T12:11:07;5.20;;;4.80;;
54599;SDS011;40500;51.084;16.958;2023-06-22T12:13:35;5.60;;;5.10;;
54599;SDS011;40500;51.084;16.958;2023-06-22T12:16:02;5.90;;;4.90;;
54599;SDS011;40500;51.084;16.958;2023-06-22T12:18:31;5.30;;;4.90;;
54599;SDS011;40500;51.084;16.958;2023-06-22T12:21:01;5.90;;;5.20;;
54599;SDS011;40500;51.084;16.958;2023-06-22T12:23:29;5.60;;;5.00;;
54599;SDS011;40500;51.084;16.958;2023-06-22T12:25:56;4.90;;;4.50;;
54599;SDS011;40500;51.084;16.958;2023-06-22T12:28:26;5.70;;;4.40;;
54599;SDS011;40500;51.084;16.958;2023-06-22T12:31:01;5.30;;;4.60;;
54599;SDS011;40500;51.084;16.958;2023-06-22T12:33:31;5.70;;;4.20;;
54599;SDS011;40500;51.084;16.958;2023-06-22T12:35:59;4.30;;;3.90;;
54599;SDS011;40500;51.084;16.958;2023-06-22T12:38:27;5.00;;;4.60;;
54599;SDS011;40500;51.084;16.958;2023-06-22T12:40:54;6.30;;;4.90;;
54599;SDS011;40500;51.084;16.958;2023-06-22T12:43:22;4.80;;;4.40;;
54599;SDS011;40500;51.084;16.958;2023-06-22T12:45:49;4.70;;;4.30;;
54599;SDS011;40500;51.084;16.958;2023-06-22T12:48:22;5.90;;;4.40;;
54599;SDS011;40500;51.084;16.958;2023-06-22T12:50:51;4.20;;;3.90;;
54599;SDS011;40500;51.084;16.958;2023-06-22T12:53:22;4.30;;;3.90;;
54599;SDS011;40500;51.084;16.958;2023-06-22T12:55:50;4.50;;;4.10;;
54599;SDS011;40500;51.084;16.958;2023-06-22T12:58:18;4.70;;;4.30;;
54599;SDS011;40500;51.084;16.958;2023-06-22T13:00:46;4.00;;;3.70;;
54599;SDS011;40500;51.084;16.958;2023-06-22T13:03:13;4.40;;;4.00;;
54599;SDS011;40500;51.084;16.958;2023-06-22T13:05:41;4.90;;;4.40;;
54599;SDS011;40500;51.084;16.958;2023-06-22T13:08:09;4.80;;;4.30;;
54599;SDS011;40500;51.084;16.958;2023-06-22T13:10:39;4.30;;;3.80;;
54599;SDS011;40500;51.084;16.958;2023-06-22T13:13:06;4.30;;;4.00;;
54599;SDS011;40500;51.084;16.958;2023-06-22T13:15:34;7.00;;;4.80;;
54599;SDS011;40500;51.084;16.958;2023-06-22T13:18:02;6.90;;;3.90;;
54599;SDS011;40500;51.084;16.958;2023-06-22T13:20:30;5.00;;;4.50;;
54599;SDS011;40500;51.084;16.958;2023-06-22T13:23:11;4.60;;;4.20;;
54599;SDS011;40500;51.084;16.958;2023-06-22T13:25:39;4.90;;;4.50;;
54599;SDS011;40500;51.084;16.958;2023-06-22T13:28:06;5.40;;;3.60;;
54599;SDS011;40500;51.084;16.958;2023-06-22T13:30:54;4.60;;;4.20;;
54599;SDS011;40500;51.084;16.958;2023-06-22T13:33:22;4.40;;;4.00;;
54599;SDS011;40500;51.084;16.958;2023-06-22T13:35:50;5.30;;;3.70;;
54599;SDS011;40500;51.084;16.958;2023-06-22T13:38:18;5.30;;;3.90;;
54599;SDS011;40500;51.084;16.958;2023-06-22T13:40:46;3.70;;;3.40;;
54599;SDS011;40500;51.084;16.958;2023-06-22T13:43:14;8.80;;;3.70;;
54599;SDS011;40500;51.084;16.958;2023-06-22T13:45:42;3.80;;;3.50;;
54599;SDS011;40500;51.084;16.958;2023-06-22T13:48:10;3.60;;;3.30;;
54599;SDS011;40500;51.084;16.958;2023-06-22T13:50:37;3.80;;;3.40;;
54599;SDS011;40500;51.084;16.958;2023-06-22T13:53:07;4.40;;;3.60;;
54599;SDS011;40500;51.084;16.958;2023-06-22T13:55:35;3.60;;;3.30;;
54599;SDS011;40500;51.084;16.958;2023-06-22T13:58:02;4.90;;;4.00;;
54599;SDS011;40500;51.084;16.958;2023-06-22T14:00:30;5.10;;;3.40;;
54599;SDS011;40500;51.084;16.958;2023-06-22T14:02:59;5.50;;;3.50;;
54599;SDS011;40500;51.084;16.958;2023-06-22T14:05:27;4.00;;;3.70;;
54599;SDS011;40500;51.084;16.958;2023-06-22T14:07:54;3.90;;;3.60;;
54599;SDS011;40500;51.084;16.958;2023-06-22T14:10:22;3.80;;;3.20;;
54599;SDS011;40500;51.084;16.958;2023-06-22T14:12:50;3.50;;;3.20;;
54599;SDS011;40500;51.084;16.958;2023-06-22T14:15:22;5.60;;;3.50;;
54599;SDS011;40500;51.084;16.958;2023-06-22T14:17:49;4.50;;;3.50;;
54599;SDS011;40500;51.084;16.958;2023-06-22T14:20:17;3.90;;;3.50;;
54599;SDS011;40500;51.084;16.958;2023-06-22T14:22:45;4.70;;;4.30;;
54599;SDS011;40500;51.084;16.958;2023-06-22T14:25:13;4.00;;;3.60;;
54599;SDS011;40500;51.084;16.958;2023-06-22T14:27:40;3.50;;;3.30;;
54599;SDS011;40500;51.084;16.958;2023-06-22T14:30:08;3.80;;;3.40;;
54599;SDS011;40500;51.084;16.958;2023-06-22T14:32:37;3.50;;;3.20;;
54599;SDS011;40500;51.084;16.958;2023-06-22T14:35:05;4.00;;;3.50;;
54599;SDS011;40500;51.084;16.958;2023-06-22T14:37:33;6.30;;;3.50;;
54599;SDS011;40500;51.084;16.958;2023-06-22T14:40:01;3.70;;;3.40;;
54599;SDS011;40500;51.084;16.958;2023-06-22T14:42:30;4.20;;;2.80;;
54599;SDS011;40500;51.084;16.958;2023-06-22T14:44:59;5.20;;;3.00;;
54599;SDS011;40500;51.084;16.958;2023-06-22T14:47:27;5.00;;;3.10;;
54599;SDS011;40500;51.084;16.958;2023-06-22T14:49:55;3.30;;;2.60;;
54599;SDS011;40500;51.084;16.958;2023-06-22T14:52:22;3.10;;;2.90;;
54599;SDS011;40500;51.084;16.958;2023-06-22T14:54:50;2.70;;;2.40;;
54599;SDS011;40500;51.084;16.958;2023-06-22T14:57:20;3.70;;;3.00;;
54599;SDS011;40500;51.084;16.958;2023-06-22T14:59:49;3.50;;;2.90;;
54599;SDS011;40500;51.084;16.958;2023-06-22T15:02:17;2.70;;;2.50;;
54599;SDS011;40500;51.084;16.958;2023-06-22T15:04:45;4.70;;;2.50;;
54599;SDS011;40500;51.084;16.958;2023-06-22T15:07:13;4.40;;;2.60;;
54599;SDS011;40500;51.084;16.958;2023-06-22T15:09:41;2.60;;;2.40;;
54599;SDS011;40500;51.084;16.958;2023-06-22T15:12:11;4.10;;;2.70;;
54599;SDS011;40500;51.084;16.958;2023-06-22T15:14:39;3.90;;;2.30;;
54599;SDS011;40500;51.084;16.958;2023-06-22T15:17:09;2.50;;;2.30;;
54599;SDS011;40500;51.084;16.958;2023-06-22T15:19:37;2.70;;;2.40;;
54599;SDS011;40500;51.084;16.958;2023-06-22T15:22:06;2.80;;;2.30;;
54599;SDS011;40500;51.084;16.958;2023-06-22T15:24:34;3.70;;;2.30;;
54599;SDS011;40500;51.084;16.958;2023-06-22T15:27:01;2.10;;;2.00;;
54599;SDS011;40500;51.084;16.958;2023-06-22T15:29:29;2.50;;;2.20;;
54599;SDS011;40500;51.084;16.958;2023-06-22T15:32:00;2.90;;;2.10;;